createdAt,value
2022-08-22T00:01:53.616Z,100428.88
2022-08-22T00:02:48.934Z,100366.66
2022-08-22T00:03:09.332Z,100365.13
2022-08-22T00:04:45.550Z,100430.09
2022-08-22T00:07:21.128Z,100434.06
2022-08-22T00:10:11.663Z,100432.53
2022-08-22T00:13:07.814Z,100427.06
2022-08-22T00:15:44.289Z,100422.22
2022-08-22T00:18:22.779Z,100419.06
2022-08-22T00:20:58.003Z,100422.84
2022-08-22T00:23:30.296Z,100422.41
2022-08-22T00:26:15.177Z,100417.38
2022-08-22T00:28:46.981Z,100418.63
2022-08-22T00:31:40.793Z,100412.31
2022-08-22T00:34:11.941Z,100408.97
2022-08-22T00:36:41.096Z,100411.22
2022-08-22T00:39:13.556Z,100410.59
2022-08-22T00:42:29.072Z,100411.00
2022-08-22T00:45:16.927Z,100413.06
2022-08-22T00:47:56.320Z,100414.97
2022-08-22T00:50:42.156Z,100414.56
2022-08-22T00:53:46.016Z,100416.25
2022-08-22T00:56:45.165Z,100405.09
2022-08-22T00:59:47.803Z,100404.69
2022-08-22T01:02:28.899Z,100408.63
2022-08-22T01:05:32.979Z,100413.06
2022-08-22T01:08:07.590Z,100404.22
2022-08-22T01:10:46.140Z,100405.47
2022-08-22T01:13:46.148Z,100399.59
2022-08-22T01:16:41.730Z,100404.84
2022-08-22T01:19:49.452Z,100402.50
2022-08-22T01:22:38.667Z,100411.94
2022-08-22T01:25:32.751Z,100402.34
2022-08-22T01:28:11.624Z,100403.53
2022-08-22T01:31:15.428Z,100403.94
2022-08-22T01:34:03.190Z,100402.44
2022-08-22T01:36:48.706Z,100398.06
2022-08-22T01:39:54.628Z,100395.13
2022-08-22T01:42:49.147Z,100391.16
2022-08-22T01:45:21.076Z,100396.16
2022-08-22T01:47:47.379Z,100386.31
2022-08-22T01:50:35.132Z,100393.44
2022-08-22T01:53:08.338Z,100393.97
2022-08-22T01:56:11.189Z,100390.16
2022-08-22T01:58:45.145Z,100398.28
2022-08-22T02:01:33.881Z,100394.66
2022-08-22T02:04:26.637Z,100388.34
2022-08-22T02:07:04.165Z,100387.06
2022-08-22T02:10:01.707Z,100393.16
2022-08-22T02:12:49.896Z,100392.72
2022-08-22T02:15:27.760Z,100389.16
2022-08-22T02:18:06.105Z,100387.00
2022-08-22T02:20:52.940Z,100385.53
2022-08-22T02:23:30.538Z,100385.28
2022-08-22T02:26:02.754Z,100383.38
2022-08-22T02:28:37.887Z,100387.75
2022-08-22T02:31:38.533Z,100388.97
2022-08-22T02:34:26.473Z,100395.22
2022-08-22T02:37:08.646Z,100384.50
2022-08-22T02:40:02.080Z,100388.25
2022-08-22T02:42:38.246Z,100384.63
2022-08-22T02:45:38.835Z,100382.47
2022-08-22T02:48:28.482Z,100385.88
2022-08-22T02:51:06.115Z,100387.75
2022-08-22T02:53:48.471Z,100382.25
2022-08-22T02:56:22.400Z,100386.66
2022-08-22T02:59:19.334Z,100384.97
2022-08-22T03:01:47.469Z,100381.53
2022-08-22T03:04:31.960Z,100384.44
2022-08-22T03:06:58.290Z,100380.41
2022-08-22T03:09:29.804Z,100395.53
2022-08-22T03:12:21.461Z,100391.50
2022-08-22T03:15:00.017Z,100390.31
2022-08-22T03:17:49.413Z,100384.41
2022-08-22T03:20:36.462Z,100386.28
2022-08-22T03:23:11.767Z,100379.63
2022-08-22T03:25:50.631Z,100380.84
2022-08-22T03:28:58.883Z,100378.13
2022-08-22T03:31:28.879Z,100372.81
2022-08-22T03:34:23.132Z,100382.94
2022-08-22T03:37:15.408Z,100389.50
2022-08-22T03:39:55.032Z,100378.38
2022-08-22T03:42:49.765Z,100382.41
2022-08-22T03:45:54.968Z,100382.31
2022-08-22T03:48:42.751Z,100388.25
2022-08-22T03:51:30.700Z,100387.22
2022-08-22T03:54:15.203Z,100391.41
2022-08-22T03:57:12.100Z,100371.31
2022-08-22T03:59:58.908Z,100391.72
2022-08-22T04:03:06.499Z,100386.28
2022-08-22T04:05:42.119Z,100383.75
2022-08-22T04:08:11.218Z,100394.81
2022-08-22T04:10:42.361Z,100391.97
2022-08-22T04:13:34.837Z,100385.41
2022-08-22T04:16:13.179Z,100392.06
2022-08-22T04:18:44.776Z,100400.38
2022-08-22T04:21:14.484Z,100402.47
2022-08-22T04:24:02.085Z,100402.81
2022-08-22T04:26:59.883Z,100398.72
2022-08-22T04:29:48.879Z,100401.78
2022-08-22T04:32:26.806Z,100406.00
2022-08-22T04:34:59.916Z,100397.47
2022-08-22T04:37:26.261Z,100402.53
2022-08-22T04:40:00.479Z,100404.41
2022-08-22T04:42:43.627Z,100403.94
2022-08-22T04:45:19.349Z,100403.56
2022-08-22T04:48:09.064Z,100409.91
2022-08-22T04:50:54.586Z,100415.19
2022-08-22T04:53:26.210Z,100410.13
2022-08-22T04:56:21.181Z,100411.72
2022-08-22T04:59:12.569Z,100419.28
2022-08-22T05:01:49.099Z,100413.09
2022-08-22T05:04:20.654Z,100412.06
2022-08-22T05:06:52.026Z,100415.44
2022-08-22T05:09:24.651Z,100412.44
2022-08-22T05:11:54.452Z,100422.47
2022-08-22T05:14:28.083Z,100416.00
2022-08-22T05:16:57.564Z,100409.94
2022-08-22T05:19:34.555Z,100415.53
2022-08-22T05:22:03.077Z,100418.81
2022-08-22T05:24:44.018Z,100413.94
2022-08-22T05:27:20.218Z,100415.53
2022-08-22T05:29:50.372Z,100411.97
2022-08-22T05:32:27.279Z,100412.47
2022-08-22T05:34:59.399Z,100414.63
2022-08-22T05:37:38.939Z,100408.25
2022-08-22T05:40:07.133Z,100413.91
2022-08-22T05:42:37.415Z,100406.50
2022-08-22T05:45:08.541Z,100410.31
2022-08-22T05:47:42.753Z,100411.34
2022-08-22T05:50:17.596Z,100408.03
2022-08-22T05:52:56.428Z,100406.75
2022-08-22T05:55:36.290Z,100420.84
2022-08-22T05:58:31.224Z,100419.50
2022-08-22T06:01:19.487Z,100425.34
2022-08-22T06:03:57.135Z,100430.06
2022-08-22T06:06:26.853Z,100427.28
2022-08-22T06:09:18.468Z,100432.41
2022-08-22T06:11:56.247Z,100429.97
2022-08-22T06:14:31.312Z,100431.53
2022-08-22T06:17:11.688Z,100429.06
2022-08-22T06:19:44.870Z,100433.13
2022-08-22T06:22:17.120Z,100438.44
2022-08-22T06:24:47.968Z,100438.69
2022-08-22T06:27:17.060Z,100422.19
2022-08-22T06:29:51.125Z,100436.75
2022-08-22T06:32:27.906Z,100436.41
2022-08-22T06:35:53.018Z,100434.81
2022-08-22T06:38:21.678Z,100445.41
2022-08-22T06:40:51.365Z,100453.63
2022-08-22T06:43:18.622Z,100450.06
2022-08-22T06:45:45.191Z,100453.41
2022-08-22T06:48:16.317Z,100442.94
2022-08-22T06:50:45.435Z,100445.25
2022-08-22T06:53:17.299Z,100448.63
2022-08-22T06:55:49.176Z,100448.03
2022-08-22T06:58:20.872Z,100447.91
2022-08-22T07:00:58.872Z,100450.50
2022-08-22T07:03:44.874Z,100451.63
2022-08-22T07:06:21.230Z,100458.84
2022-08-22T07:08:53.131Z,100456.00
2022-08-22T07:11:26.065Z,100459.13
2022-08-22T07:13:55.151Z,100463.16
2022-08-22T07:16:33.188Z,100460.00
2022-08-22T07:19:01.140Z,100468.03
2022-08-22T07:21:34.263Z,100463.41
2022-08-22T07:24:03.057Z,100468.84
2022-08-22T07:26:48.920Z,100468.63
2022-08-22T07:29:24.552Z,100472.97
2022-08-22T07:34:39.241Z,100474.25
2022-08-22T07:37:14.316Z,100469.75
2022-08-22T07:39:54.972Z,100477.06
2022-08-22T07:42:30.353Z,100470.78
2022-08-22T07:45:15.607Z,100466.56
2022-08-22T07:47:41.912Z,100465.81
2022-08-22T07:50:15.183Z,100467.69
2022-08-22T07:52:44.097Z,100464.00
2022-08-22T07:55:20.445Z,100464.50
2022-08-22T07:57:54.719Z,100470.03
2022-08-22T08:00:23.832Z,100459.59
2022-08-22T08:02:53.945Z,100466.44
2022-08-22T08:05:23.233Z,100466.69
2022-08-22T08:07:53.623Z,100471.84
2022-08-22T08:10:27.451Z,100466.66
2022-08-22T08:13:02.444Z,100472.13
2022-08-22T08:15:32.059Z,100469.59
2022-08-22T08:18:03.776Z,100460.31
2022-08-22T08:20:30.679Z,100463.16
2022-08-22T08:22:59.205Z,100457.19
2022-08-22T08:25:28.186Z,100457.00
2022-08-22T08:28:15.883Z,100460.47
2022-08-22T08:30:55.996Z,100461.78
2022-08-22T08:33:26.933Z,100455.44
2022-08-22T08:36:09.946Z,100467.91
2022-08-22T08:38:47.806Z,100472.25
2022-08-22T08:41:44.827Z,100470.44
2022-08-22T08:44:32.779Z,100465.56
2022-08-22T08:47:20.565Z,100473.25
2022-08-22T08:50:01.650Z,100473.97
2022-08-22T08:52:52.942Z,100462.06
2022-08-22T08:55:33.143Z,100461.78
2022-08-22T08:58:22.592Z,100462.81
2022-08-22T09:00:57.075Z,100467.59
2022-08-22T09:03:43.807Z,100471.88
2022-08-22T09:06:25.295Z,100463.81
2022-08-22T09:09:16.948Z,100466.84
2022-08-22T09:11:46.320Z,100462.84
2022-08-22T09:14:12.705Z,100459.94
2022-08-22T09:17:07.836Z,100462.91
2022-08-22T09:19:40.515Z,100469.28
2022-08-22T09:22:33.409Z,100456.50
2022-08-22T09:25:23.850Z,100462.03
2022-08-22T09:28:10.842Z,100460.25
2022-08-22T09:30:54.136Z,100462.59
2022-08-22T09:33:24.687Z,100448.56
2022-08-22T09:36:06.192Z,100449.78
2022-08-22T09:38:57.612Z,100444.63
2022-08-22T09:41:40.709Z,100440.03
2022-08-22T09:44:16.892Z,100431.72
2022-08-22T09:46:46.267Z,100433.88
2022-08-22T09:49:48.212Z,100434.94
2022-08-22T09:52:33.270Z,100427.09
2022-08-22T09:55:16.202Z,100428.50
2022-08-22T09:58:18.574Z,100422.31
2022-08-22T10:00:56.961Z,100409.00
2022-08-22T10:03:51.948Z,100415.94
2022-08-22T10:06:26.874Z,100411.41
2022-08-22T10:09:09.088Z,100407.53
2022-08-22T10:11:52.523Z,100410.84
2022-08-22T10:14:25.452Z,100400.31
2022-08-22T10:17:28.543Z,100402.41
2022-08-22T10:20:15.250Z,100392.66
2022-08-22T10:23:11.466Z,100396.03
2022-08-22T10:25:52.699Z,100393.06
2022-08-22T10:28:39.329Z,100384.75
2022-08-22T10:31:24.346Z,100392.03
2022-08-22T10:34:07.987Z,100399.88
2022-08-22T10:37:02.449Z,100392.81
2022-08-22T10:39:43.984Z,100388.06
2022-08-22T10:42:35.086Z,100389.56
2022-08-22T10:45:35.734Z,100384.97
2022-08-22T10:48:07.256Z,100373.41
2022-08-22T10:50:40.183Z,100380.94
2022-08-22T10:53:31.138Z,100374.88
2022-08-22T10:56:08.452Z,100377.13
2022-08-22T10:59:06.291Z,100372.84
2022-08-22T11:01:52.805Z,100368.50
2022-08-22T11:04:45.276Z,100365.81
2022-08-22T11:07:48.750Z,100354.50
2022-08-22T11:10:26.718Z,100363.63
2022-08-22T11:13:16.586Z,100361.75
2022-08-22T11:15:54.978Z,100365.91
2022-08-22T11:19:16.931Z,100356.75
2022-08-22T11:21:46.624Z,100356.78
2022-08-22T11:24:56.384Z,100352.59
2022-08-22T11:27:37.693Z,100357.56
2022-08-22T11:30:18.617Z,100352.78
2022-08-22T11:33:00.693Z,100352.25
2022-08-22T11:35:51.848Z,100350.00
2022-08-22T11:38:37.199Z,100352.19
2022-08-22T11:41:27.020Z,100348.81
2022-08-22T11:44:06.209Z,100344.44
2022-08-22T11:46:36.966Z,100334.88
2022-08-22T11:49:33.844Z,100347.31
2022-08-22T11:52:25.696Z,100348.47
2022-08-22T11:54:56.712Z,100346.94
2022-08-22T11:57:44.876Z,100346.69
2022-08-22T12:00:26.398Z,100344.81
2022-08-22T12:03:05.063Z,100347.25
2022-08-22T12:05:35.792Z,100339.53
2022-08-22T12:08:21.191Z,100341.19
2022-08-22T12:10:57.704Z,100336.81
2022-08-22T12:13:34.858Z,100331.81
2022-08-22T12:16:32.299Z,100335.69
2022-08-22T12:19:01.556Z,100333.47
2022-08-22T12:21:36.770Z,100326.84
2022-08-22T12:24:11.364Z,100328.22
2022-08-22T12:26:53.229Z,100323.44
2022-08-22T12:30:13.951Z,100316.25
2022-08-22T12:33:23.295Z,100322.69
2022-08-22T12:35:58.613Z,100314.75
2022-08-22T12:38:50.276Z,100318.28
2022-08-22T12:41:28.116Z,100311.53
2022-08-22T12:44:29.356Z,100311.38
2022-08-22T12:47:32.122Z,100307.03
2022-08-22T12:50:18.824Z,100297.22
2022-08-22T12:53:19.989Z,100296.81
2022-08-22T12:56:29.408Z,100302.94
2022-08-22T12:58:58.696Z,100290.81
2022-08-22T13:01:34.347Z,100288.94
2022-08-22T13:04:05.060Z,100287.72
2022-08-22T13:06:48.837Z,100288.47
2022-08-22T13:09:28.829Z,100278.34
2022-08-22T13:12:00.233Z,100282.91
2022-08-22T13:14:33.821Z,100289.78
2022-08-22T13:17:23.699Z,100291.97
2022-08-22T13:19:59.216Z,100290.97
2022-08-22T13:22:30.653Z,100288.13
2022-08-22T13:25:16.260Z,100282.91
2022-08-22T13:27:59.781Z,100278.63
2022-08-22T13:30:37.857Z,100279.13
2022-08-22T13:33:22.307Z,100279.69
2022-08-22T13:35:53.261Z,100280.09
2022-08-22T13:38:46.692Z,100273.69
2022-08-22T13:41:19.460Z,100280.97
2022-08-22T13:44:14.144Z,100275.25
2022-08-22T13:47:10.893Z,100277.38
2022-08-22T13:49:34.469Z,100270.91
2022-08-22T13:52:38.350Z,100270.25
2022-08-22T13:55:24.136Z,100268.97
2022-08-22T13:58:06.730Z,100261.19
2022-08-22T14:01:11.853Z,100261.78
2022-08-22T14:03:48.817Z,100264.97
2022-08-22T14:06:35.287Z,100265.22
2022-08-22T14:09:29.342Z,100248.69
2022-08-22T14:12:08.219Z,100265.06
2022-08-22T14:14:42.444Z,100254.19
2022-08-22T14:17:22.756Z,100256.38
2022-08-22T14:20:01.784Z,100254.53
2022-08-22T14:22:35.039Z,100259.53
2022-08-22T14:25:34.359Z,100253.41
2022-08-22T14:28:09.081Z,100255.81
2022-08-22T14:30:59.437Z,100248.19
2022-08-22T14:33:46.788Z,100245.97
2022-08-22T14:36:21.843Z,100240.09
2022-08-22T14:39:03.688Z,100243.13
2022-08-22T14:41:56.272Z,100240.41
2022-08-22T14:44:48.127Z,100235.53
2022-08-22T14:47:55.025Z,100239.91
2022-08-22T14:51:00.775Z,100229.69
2022-08-22T14:53:37.115Z,100225.53
2022-08-22T14:56:18.917Z,100223.69
2022-08-22T14:58:57.447Z,100222.09
2022-08-22T15:01:26.615Z,100224.66
2022-08-22T15:04:07.660Z,100220.72
2022-08-22T15:06:50.702Z,100227.09
2022-08-22T15:09:48.491Z,100221.69
2022-08-22T15:12:34.586Z,100223.00
2022-08-22T15:15:06.112Z,100218.81
2022-08-22T15:17:44.861Z,100221.00
2022-08-22T15:20:27.900Z,100218.38
2022-08-22T15:22:59.907Z,100223.94
2022-08-22T15:25:34.910Z,100214.19
2022-08-22T15:28:20.100Z,100204.59
2022-08-22T15:30:58.602Z,100208.91
2022-08-22T15:33:36.029Z,100212.53
2022-08-22T15:36:16.457Z,100209.22
2022-08-22T15:38:51.410Z,100209.72
2022-08-22T15:41:31.489Z,100208.38
2022-08-22T15:44:32.967Z,100193.47
2022-08-22T15:47:15.123Z,100203.69
2022-08-22T15:49:58.944Z,100199.78
2022-08-22T15:52:29.503Z,100197.03
2022-08-22T15:54:57.019Z,100197.84
2022-08-22T15:57:38.949Z,100189.53
2022-08-22T16:00:32.525Z,100194.72
2022-08-22T16:03:24.620Z,100183.75
2022-08-22T16:06:00.678Z,100195.38
2022-08-22T16:08:36.347Z,100184.63
2022-08-22T16:11:02.642Z,100190.38
2022-08-22T16:13:32.141Z,100184.81
2022-08-22T16:16:00.836Z,100182.63
2022-08-22T16:18:33.320Z,100185.13
2022-08-22T16:21:22.005Z,100183.19
2022-08-22T16:23:56.179Z,100186.31
2022-08-22T16:26:31.727Z,100178.31
2022-08-22T16:29:14.706Z,100179.13
2022-08-22T16:31:43.810Z,100174.41
2022-08-22T16:34:16.363Z,100175.78
2022-08-22T16:37:03.108Z,100172.13
2022-08-22T16:39:40.813Z,100170.25
2022-08-22T16:42:16.017Z,100173.88
2022-08-22T16:44:47.727Z,100170.53
2022-08-22T16:47:23.645Z,100164.38
2022-08-22T16:49:49.930Z,100165.81
2022-08-22T16:52:39.032Z,100168.63
2022-08-22T16:55:30.290Z,100164.50
2022-08-22T16:58:09.431Z,100173.59
2022-08-22T17:00:57.992Z,100171.34
2022-08-22T17:04:02.879Z,100171.63
2022-08-22T17:06:47.397Z,100170.78
2022-08-22T17:09:32.375Z,100173.28
2022-08-22T17:12:29.348Z,100173.22
2022-08-22T17:15:25.861Z,100176.72
2022-08-22T17:18:20.103Z,100176.19
2022-08-22T17:21:17.603Z,100168.66
2022-08-22T17:24:32.018Z,100176.34
2022-08-22T17:27:06.904Z,100173.84
2022-08-22T17:30:10.416Z,100186.50
2022-08-22T17:32:59.748Z,100182.38
2022-08-22T17:35:54.854Z,100184.56
2022-08-22T17:38:27.255Z,100186.38
2022-08-22T17:41:13.844Z,100188.53
2022-08-22T17:44:00.129Z,100191.75
2022-08-22T17:46:44.432Z,100199.47
2022-08-22T17:49:33.128Z,100187.53
2022-08-22T17:52:24.984Z,100197.66
2022-08-22T17:55:01.059Z,100190.31
2022-08-22T17:57:32.999Z,100203.16
2022-08-22T18:00:34.424Z,100205.16
2022-08-22T18:03:12.877Z,100202.63
2022-08-22T18:05:50.263Z,100198.66
2022-08-22T18:09:13.427Z,100202.19
2022-08-22T18:11:29.389Z,100202.81
2022-08-22T18:14:23.602Z,100199.16
2022-08-22T18:16:55.306Z,100199.31
2022-08-22T18:19:36.765Z,100200.25
2022-08-22T18:22:31.962Z,100197.94
2022-08-22T18:25:16.604Z,100204.22
2022-08-22T18:27:51.591Z,100205.59
2022-08-22T18:30:19.820Z,100196.81
2022-08-22T18:32:52.672Z,100212.09
2022-08-22T18:35:30.051Z,100198.50
2022-08-22T18:38:18.299Z,100214.06
2022-08-22T18:40:57.141Z,100218.31
2022-08-22T18:43:35.495Z,100202.53
2022-08-22T18:46:23.803Z,100210.31
2022-08-22T18:49:14.113Z,100206.75
2022-08-22T18:51:38.695Z,100216.50
2022-08-22T18:54:05.199Z,100212.66
2022-08-22T18:56:31.505Z,100207.91
2022-08-22T18:59:06.084Z,100220.47
2022-08-22T19:01:54.322Z,100217.78
2022-08-22T19:04:45.730Z,100215.75
2022-08-22T19:07:46.741Z,100221.75
2022-08-22T19:10:13.103Z,100215.31
2022-08-22T19:13:03.169Z,100228.00
2022-08-22T19:15:55.328Z,100231.50
2022-08-22T19:18:39.947Z,100227.94
2022-08-22T19:21:39.768Z,100232.72
2022-08-22T19:24:26.400Z,100233.09
2022-08-22T19:27:19.213Z,100228.06
2022-08-22T19:29:45.518Z,100237.69
2022-08-22T19:32:55.427Z,100242.34
2022-08-22T19:35:25.632Z,100238.84
2022-08-22T19:37:54.295Z,100242.56
2022-08-22T19:40:45.560Z,100248.03
2022-08-22T19:43:30.200Z,100253.53
2022-08-22T19:45:58.639Z,100249.97
2022-08-22T19:48:48.648Z,100245.41
2022-08-22T19:51:27.948Z,100248.75
2022-08-22T19:54:16.760Z,100245.88
2022-08-22T19:56:59.521Z,100245.13
2022-08-22T19:59:34.954Z,100245.22
2022-08-22T20:02:19.867Z,100244.94
2022-08-22T20:04:58.032Z,100247.91
2022-08-22T20:07:44.600Z,100245.09
2022-08-22T20:10:31.038Z,100252.44
2022-08-22T20:13:18.008Z,100252.91
2022-08-22T20:16:42.685Z,100248.94
2022-08-22T20:19:09.915Z,100245.84
2022-08-22T20:21:56.727Z,100253.06
2022-08-22T20:25:16.843Z,100255.88
2022-08-22T20:28:06.013Z,100246.69
2022-08-22T20:30:45.534Z,100254.25
2022-08-22T20:33:18.420Z,100252.84
2022-08-22T20:35:54.977Z,100247.81
2022-08-22T20:38:32.168Z,100254.81
2022-08-22T20:41:20.844Z,100257.41
2022-08-22T20:43:57.147Z,100253.91
2022-08-22T20:46:33.402Z,100260.06
2022-08-22T20:49:00.936Z,100256.34
2022-08-22T20:51:31.424Z,100251.16
2022-08-22T20:54:01.267Z,100244.09
2022-08-22T20:56:59.943Z,100262.41
2022-08-22T20:59:27.343Z,100265.38
2022-08-22T21:02:25.676Z,100260.41
2022-08-22T21:05:06.247Z,100260.66
2022-08-22T21:07:39.786Z,100262.47
2022-08-22T21:10:40.327Z,100261.84
2022-08-22T21:13:11.443Z,100261.53
2022-08-22T21:15:44.229Z,100266.06
2022-08-22T21:18:22.983Z,100262.94
2022-08-22T21:20:50.551Z,100260.03
2022-08-22T21:23:17.859Z,100263.81
2022-08-22T21:25:56.520Z,100269.72
2022-08-22T21:28:40.690Z,100265.72
2022-08-22T21:31:14.208Z,100273.81
2022-08-22T21:33:45.708Z,100271.53
2022-08-22T21:36:14.449Z,100280.59
2022-08-22T21:39:06.376Z,100273.50
2022-08-22T21:41:42.654Z,100268.94
2022-08-22T21:44:31.986Z,100274.44
2022-08-22T21:47:30.873Z,100268.56
2022-08-22T21:50:04.190Z,100278.88
2022-08-22T21:52:33.212Z,100283.69
2022-08-22T21:55:15.687Z,100271.34
2022-08-22T21:57:43.175Z,100275.75
2022-08-22T22:00:39.208Z,100286.25
2022-08-22T22:03:07.281Z,100277.44
2022-08-22T22:05:33.754Z,100285.88
2022-08-22T22:08:00.422Z,100284.84
2022-08-22T22:10:27.231Z,100292.19
2022-08-22T22:12:56.584Z,100300.59
2022-08-22T22:15:25.771Z,100288.06
2022-08-22T22:17:52.332Z,100291.56
2022-08-22T22:20:20.599Z,100302.91
2022-08-22T22:22:47.435Z,100298.72
2022-08-22T22:25:40.675Z,100298.13
2022-08-22T22:28:12.739Z,100315.31
2022-08-22T22:30:39.950Z,100312.38
2022-08-22T22:33:06.412Z,100326.47
2022-08-22T22:35:32.899Z,100331.09
2022-08-22T22:37:59.520Z,100333.19
2022-08-22T22:40:26.072Z,100349.97
2022-08-22T22:42:52.487Z,100350.41
2022-08-22T22:45:18.883Z,100348.31
2022-08-22T22:47:45.271Z,100344.53
2022-08-22T22:50:11.650Z,100347.25
2022-08-22T22:52:40.755Z,100354.19
2022-08-22T22:55:08.560Z,100334.03
2022-08-22T22:57:41.270Z,100349.56
2022-08-22T23:00:14.236Z,100352.09
2022-08-22T23:02:41.405Z,100356.50
2022-08-22T23:05:09.944Z,100357.56
2022-08-22T23:07:37.115Z,100362.81
2022-08-22T23:10:06.793Z,100363.63
2022-08-22T23:12:36.184Z,100355.88
2022-08-22T23:15:04.991Z,100365.97
2022-08-22T23:17:31.760Z,100363.00
2022-08-22T23:19:58.197Z,100364.66
2022-08-22T23:22:24.710Z,100357.97
2022-08-22T23:24:51.241Z,100365.94
2022-08-22T23:27:18.201Z,100365.50
2022-08-22T23:29:44.812Z,100370.34
2022-08-22T23:32:12.119Z,100364.47
2022-08-22T23:34:46.096Z,100374.53
2022-08-22T23:37:15.519Z,100375.13
2022-08-22T23:39:42.091Z,100383.53
2022-08-22T23:42:09.904Z,100375.16
2022-08-22T23:44:39.327Z,100367.41
2022-08-22T23:47:07.321Z,100376.41
2022-08-22T23:49:34.814Z,100379.72
2022-08-22T23:52:01.761Z,100381.63
2022-08-22T23:54:28.584Z,100364.59
2022-08-22T23:57:00.955Z,100376.75
2022-08-22T23:59:31.013Z,100373.41
